createdAt,value
2023-03-06T06:03:14.456Z,94832.00
2023-03-06T09:38:19.112Z,94842.00
2023-03-06T09:40:19.190Z,94838.00
2023-03-06T09:41:19.227Z,94836.00
2023-03-06T09:58:19.887Z,94836.00
2023-03-06T09:59:20.348Z,94834.00
2023-03-06T10:03:20.185Z,94830.00
2023-03-06T10:05:20.181Z,94828.00
2023-03-06T10:08:20.335Z,94826.00
2023-03-06T10:09:20.355Z,94822.00
2023-03-06T10:10:20.420Z,94821.00
2023-03-06T10:11:20.462Z,94824.00
2023-03-06T10:12:21.105Z,94822.00
2023-03-06T10:14:20.631Z,94821.00
2023-03-06T10:17:20.741Z,94822.00
2023-03-06T10:19:19.872Z,94824.00
2023-03-06T10:21:19.900Z,94821.00
2023-03-06T10:22:19.929Z,94822.00
2023-03-06T10:23:19.978Z,94822.00
2023-03-06T10:24:21.022Z,94821.00
2023-03-06T10:25:21.069Z,94821.00
2023-03-06T10:26:20.224Z,94819.00
2023-03-06T10:27:20.193Z,94817.00
2023-03-06T10:29:21.281Z,94817.00
2023-03-06T10:30:21.485Z,94815.00
2023-03-06T10:31:21.387Z,94813.00
2023-03-06T10:32:20.461Z,94815.00
2023-03-06T10:36:20.665Z,94811.00
2023-03-06T10:38:21.799Z,94809.00
2023-03-06T10:57:21.940Z,94785.00
2023-03-06T12:52:30.611Z,94728.00
2023-03-06T12:53:29.947Z,94728.00
2023-03-06T12:54:30.049Z,94728.00
2023-03-06T12:55:30.076Z,94728.00
2023-03-06T12:56:30.138Z,94727.00
2023-03-06T12:57:30.219Z,94730.00
2023-03-06T12:58:30.272Z,94728.00
2023-03-06T12:59:30.310Z,94730.00
2023-03-06T13:00:30.337Z,94727.00
2023-03-06T13:01:30.412Z,94727.00
2023-03-06T13:04:30.548Z,94723.00
2023-03-06T13:05:30.571Z,94723.00
2023-03-06T13:07:30.639Z,94723.00
2023-03-06T13:08:30.695Z,94727.00
2023-03-06T13:10:30.774Z,94727.00
2023-03-06T13:11:30.799Z,94723.00
2023-03-06T13:12:30.983Z,94727.00
2023-03-06T13:13:30.920Z,94723.00
2023-03-06T13:14:30.942Z,94725.00
2023-03-06T13:15:30.964Z,94723.00
2023-03-06T13:16:31.011Z,94727.00
2023-03-06T13:17:30.029Z,94728.00
2023-03-06T13:18:30.061Z,94728.00
2023-03-06T13:19:31.065Z,94728.00
2023-03-06T13:20:30.111Z,94727.00
2023-03-06T13:21:31.100Z,94727.00
2023-03-06T13:22:30.147Z,94728.00
2023-03-06T13:23:31.173Z,94728.00
2023-03-06T13:24:31.180Z,94728.00
2023-03-06T13:25:31.243Z,94730.00
2023-03-06T13:26:31.259Z,94728.00
2023-03-06T13:27:31.261Z,94728.00
2023-03-06T13:28:30.294Z,94727.00
2023-03-06T13:29:31.371Z,94727.00
2023-03-06T13:30:30.386Z,94728.00
2023-03-06T13:31:30.463Z,94730.00
2023-03-06T13:32:30.488Z,94730.00
2023-03-06T13:33:31.467Z,94728.00
2023-03-06T13:34:31.530Z,94730.00
2023-03-06T13:35:31.670Z,94728.00
2023-03-06T13:36:31.644Z,94730.00
2023-03-06T13:37:31.681Z,94730.00
2023-03-06T13:38:30.742Z,94734.00
2023-03-06T13:39:31.713Z,94728.00
2023-03-06T13:40:31.713Z,94730.00
2023-03-06T13:41:31.725Z,94732.00
2023-03-06T13:42:31.738Z,94730.00
2023-03-06T13:43:32.036Z,94725.00
2023-03-06T13:44:31.737Z,94730.00
2023-03-06T13:45:31.847Z,94728.00
2023-03-06T13:46:31.814Z,94728.00
2023-03-06T13:47:31.757Z,94727.00
2023-03-06T13:48:44.283Z,94727.00
2023-03-06T13:49:31.803Z,94723.00
2023-03-06T13:50:31.761Z,94723.00
2023-03-06T13:51:31.752Z,94723.00
2023-03-06T13:52:31.767Z,94723.00
2023-03-06T13:53:31.755Z,94725.00
2023-03-06T13:54:31.765Z,94723.00
2023-03-06T13:55:31.752Z,94723.00
2023-03-06T13:56:30.752Z,94728.00
2023-03-06T13:57:31.742Z,94725.00
2023-03-06T13:58:30.716Z,94728.00
2023-03-06T13:59:30.695Z,94730.00
2023-03-06T14:00:31.719Z,94732.00
2023-03-06T14:01:31.761Z,94730.00
2023-03-06T14:02:31.691Z,94728.00
2023-03-06T14:03:31.672Z,94732.00
2023-03-06T14:04:31.676Z,94728.00
2023-03-06T14:05:32.152Z,94730.00
2023-03-06T14:06:31.667Z,94728.00
2023-03-06T14:07:31.662Z,94730.00
2023-03-06T14:08:31.740Z,94730.00
2023-03-06T14:09:31.733Z,94727.00
2023-03-06T14:10:31.767Z,94723.00
2023-03-06T14:11:31.816Z,94727.00
2023-03-06T14:12:30.828Z,94725.00
2023-03-06T14:13:38.395Z,94727.00
2023-03-06T14:14:31.848Z,94725.00
2023-03-06T14:15:31.864Z,94727.00
2023-03-06T14:16:40.598Z,94728.00
2023-03-06T14:17:31.853Z,94728.00
2023-03-06T14:18:31.830Z,94732.00
2023-03-06T14:19:30.903Z,94732.00
2023-03-06T14:20:31.832Z,94732.00
2023-03-06T14:21:31.878Z,94734.00
2023-03-06T14:22:31.848Z,94736.00
2023-03-06T14:23:31.792Z,94736.00
2023-03-06T14:24:31.841Z,94736.00
2023-03-06T14:25:31.837Z,94742.00
2023-03-06T14:26:30.805Z,94738.00
2023-03-06T14:27:30.794Z,94738.00
2023-03-06T14:28:31.776Z,94736.00
2023-03-06T14:29:31.783Z,94734.00
2023-03-06T14:30:31.807Z,94734.00
2023-03-06T14:31:30.842Z,94738.00
2023-03-06T14:32:31.859Z,94738.00
2023-03-06T14:33:30.830Z,94738.00
2023-03-06T14:34:30.768Z,94738.00
2023-03-06T14:35:31.788Z,94742.00
2023-03-06T14:36:31.808Z,94736.00
2023-03-06T14:37:31.703Z,94740.00
2023-03-06T14:38:31.719Z,94734.00
2023-03-06T14:39:31.691Z,94738.00
2023-03-06T14:40:31.733Z,94736.00
2023-03-06T14:41:31.687Z,94736.00
2023-03-06T14:42:31.732Z,94734.00
2023-03-06T14:43:31.683Z,94732.00
2023-03-06T14:44:31.672Z,94734.00
2023-03-06T14:45:31.670Z,94734.00
2023-03-06T14:46:31.844Z,94738.00
2023-03-06T14:47:31.701Z,94740.00
2023-03-06T14:48:31.678Z,94736.00
2023-03-06T14:49:30.676Z,94734.00
2023-03-06T14:50:31.734Z,94736.00
2023-03-06T14:51:31.662Z,94734.00
2023-03-06T14:52:30.630Z,94736.00
2023-03-06T14:53:31.659Z,94734.00
2023-03-06T14:54:31.617Z,94734.00
2023-03-06T14:55:30.647Z,94738.00
2023-03-06T14:56:30.598Z,94736.00
2023-03-06T14:57:31.584Z,94738.00
2023-03-06T14:58:31.594Z,94728.00
2023-03-06T14:59:31.575Z,94732.00
2023-03-06T15:00:31.655Z,94732.00
2023-03-06T15:01:31.610Z,94732.00
2023-03-06T15:02:30.629Z,94734.00
2023-03-06T15:03:33.771Z,94734.00
2023-03-06T15:04:31.548Z,94732.00
2023-03-06T15:05:31.641Z,94732.00
2023-03-06T15:06:30.518Z,94734.00
2023-03-06T15:07:31.529Z,94734.00
2023-03-06T15:08:31.510Z,94736.00
2023-03-06T15:09:31.535Z,94732.00
2023-03-06T15:10:31.510Z,94728.00
2023-03-06T15:11:31.497Z,94734.00
2023-03-06T15:12:31.482Z,94734.00
2023-03-06T15:13:31.490Z,94728.00
2023-03-06T15:14:31.473Z,94728.00
2023-03-06T15:15:31.490Z,94727.00
2023-03-06T15:16:31.536Z,94732.00
2023-03-06T15:17:30.474Z,94732.00
2023-03-06T15:18:30.470Z,94730.00
2023-03-06T15:19:31.449Z,94730.00
2023-03-06T15:20:31.442Z,94730.00
2023-03-06T15:21:30.458Z,94730.00
2023-03-06T15:22:30.450Z,94730.00
2023-03-06T15:23:31.417Z,94728.00
2023-03-06T15:24:30.430Z,94732.00
2023-03-06T15:25:30.432Z,94732.00
2023-03-06T15:26:31.420Z,94734.00
2023-03-06T15:27:30.402Z,94736.00
2023-03-06T15:28:30.377Z,94736.00
2023-03-06T15:29:31.384Z,94740.00
2023-03-06T15:30:31.382Z,94742.00
2023-03-06T15:31:31.432Z,94740.00
2023-03-06T15:32:31.411Z,94738.00
2023-03-06T15:33:31.385Z,94738.00
2023-03-06T15:34:31.343Z,94736.00
2023-03-06T15:35:31.405Z,94736.00
2023-03-06T15:36:31.347Z,94736.00
2023-03-06T15:37:31.355Z,94736.00
2023-03-06T15:38:31.358Z,94740.00
2023-03-06T15:39:31.350Z,94738.00
2023-03-06T15:40:31.329Z,94742.00
2023-03-06T15:41:31.326Z,94742.00
2023-03-06T15:42:31.307Z,94744.00
2023-03-06T15:43:31.296Z,94746.00
2023-03-06T15:44:31.291Z,94742.00
2023-03-06T15:45:31.355Z,94740.00
2023-03-06T15:46:31.296Z,94738.00
2023-03-06T15:47:31.262Z,94736.00
2023-03-06T15:48:31.278Z,94740.00
2023-03-06T15:49:30.250Z,94738.00
2023-03-06T15:50:31.270Z,94736.00
2023-03-06T15:51:31.249Z,94740.00
2023-03-06T15:52:31.251Z,94744.00
2023-03-06T15:53:31.260Z,94738.00
2023-03-06T15:54:32.846Z,94738.00
2023-03-06T15:55:31.234Z,94738.00
2023-03-06T15:56:31.208Z,94736.00
2023-03-06T15:57:31.266Z,94738.00
2023-03-06T15:58:31.188Z,94736.00
2023-03-06T15:59:30.190Z,94740.00
2023-03-06T16:00:31.198Z,94742.00
2023-03-06T16:01:30.287Z,94748.00
2023-03-06T16:02:31.182Z,94748.00
2023-03-06T16:03:31.185Z,94748.00
2023-03-06T16:04:31.229Z,94744.00
2023-03-06T16:05:31.175Z,94742.00
2023-03-06T16:06:31.143Z,94744.00
2023-03-06T16:07:30.145Z,94742.00
2023-03-06T16:08:30.146Z,94740.00
2023-03-06T16:09:31.162Z,94740.00
2023-03-06T16:10:31.125Z,94744.00
2023-03-06T16:11:41.900Z,94740.00
2023-03-06T16:12:31.101Z,94748.00
2023-03-06T16:13:30.132Z,94748.00
2023-03-06T16:14:31.089Z,94750.00
2023-03-06T16:15:31.111Z,94750.00
2023-03-06T16:16:30.152Z,94752.00
2023-03-06T16:17:30.076Z,94752.00
2023-03-06T16:18:31.067Z,94750.00
2023-03-06T16:19:31.073Z,94752.00
2023-03-06T16:20:31.072Z,94750.00
2023-03-06T16:21:31.053Z,94750.00
2023-03-06T16:22:31.053Z,94748.00
2023-03-06T16:23:31.044Z,94746.00
2023-03-06T16:24:31.019Z,94748.00
2023-03-06T16:25:31.096Z,94744.00
2023-03-06T16:26:31.072Z,94744.00
2023-03-06T16:27:30.063Z,94742.00
2023-03-06T16:28:31.075Z,94742.00
2023-03-06T16:29:31.086Z,94744.00
